createdAt,value
2018-11-29T00:01:03.585Z,46.97
2018-11-29T00:06:06.773Z,47.16
2018-11-29T00:11:09.960Z,47.32
2018-11-29T00:16:13.575Z,46.90
2018-11-29T00:21:16.801Z,47.35
2018-11-29T00:26:19.978Z,47.25
2018-11-29T00:31:23.225Z,46.91
2018-11-29T00:36:26.426Z,47.00
2018-11-29T00:41:29.654Z,47.31
2018-11-29T00:46:32.841Z,47.25
2018-11-29T00:51:36.098Z,47.12
2018-11-29T00:56:39.269Z,47.34
2018-11-29T01:01:47.809Z,47.22
2018-11-29T01:06:51.006Z,46.87
2018-11-29T01:11:54.230Z,47.22
2018-11-29T01:16:57.430Z,47.24
2018-11-29T01:22:00.601Z,46.74
2018-11-29T01:27:03.850Z,46.72
2018-11-29T01:32:07.053Z,46.77
2018-11-29T01:37:10.263Z,47.09
2018-11-29T01:42:13.481Z,46.72
2018-11-29T01:47:16.667Z,46.92
2018-11-29T01:52:19.886Z,46.76
2018-11-29T01:57:23.106Z,46.86
2018-11-29T02:02:26.319Z,46.88
2018-11-29T02:07:29.521Z,47.07
2018-11-29T02:12:32.738Z,46.66
2018-11-29T02:17:36.142Z,46.99
2018-11-29T02:22:39.355Z,46.68
2018-11-29T02:27:42.553Z,46.84
2018-11-29T02:32:45.877Z,46.85
2018-11-29T02:37:49.061Z,46.91
2018-11-29T02:42:52.641Z,46.78
2018-11-29T02:47:55.815Z,46.73
2018-11-29T02:52:58.998Z,46.75
2018-11-29T02:58:02.313Z,46.90
2018-11-29T03:03:05.738Z,46.96
2018-11-29T03:08:08.942Z,46.96
2018-11-29T03:13:12.149Z,46.60
2018-11-29T03:18:15.370Z,46.83
2018-11-29T03:23:18.275Z,46.82
2018-11-29T03:28:21.486Z,46.61
2018-11-29T03:33:24.671Z,46.60
2018-11-29T03:38:27.889Z,46.49
2018-11-29T03:43:31.060Z,46.72
2018-11-29T03:48:34.306Z,46.74
2018-11-29T03:53:37.517Z,46.83
2018-11-29T03:58:40.730Z,46.43
2018-11-29T04:03:43.928Z,46.41
2018-11-29T04:08:47.146Z,46.57
2018-11-29T04:13:50.348Z,46.59
2018-11-29T04:18:53.596Z,46.50
2018-11-29T04:23:56.777Z,46.49
2018-11-29T04:28:59.999Z,46.59
2018-11-29T04:34:03.186Z,46.68
2018-11-29T04:39:07.550Z,46.31
2018-11-29T04:44:10.751Z,46.59
2018-11-29T04:49:14.146Z,46.77
2018-11-29T04:54:17.350Z,46.81
2018-11-29T04:59:20.575Z,47.50
2018-11-29T05:04:23.770Z,47.17
2018-11-29T05:09:26.954Z,47.20
2018-11-29T05:14:30.191Z,47.55
2018-11-29T05:19:34.194Z,47.64
2018-11-29T05:24:37.406Z,47.71
2018-11-29T05:29:40.615Z,47.47
2018-11-29T05:34:43.826Z,47.24
2018-11-29T05:39:46.977Z,47.75
2018-11-29T05:44:50.230Z,47.43
2018-11-29T05:49:53.394Z,47.56
2018-11-29T05:54:56.557Z,47.35
2018-11-29T05:59:59.717Z,47.70
2018-11-29T06:05:03.620Z,47.81
2018-11-29T06:10:06.805Z,47.73
2018-11-29T06:15:11.037Z,47.50
2018-11-29T06:20:15.470Z,47.76
2018-11-29T06:25:18.667Z,47.74
2018-11-29T06:30:22.605Z,47.43
2018-11-29T06:35:25.793Z,47.50
2018-11-29T06:40:29.011Z,47.70
2018-11-29T06:45:32.224Z,47.74
2018-11-29T06:50:35.433Z,47.68
2018-11-29T06:55:38.634Z,47.68
2018-11-29T07:00:41.794Z,47.34
2018-11-29T07:05:44.954Z,47.61
2018-11-29T07:10:48.159Z,47.34
2018-11-29T07:15:51.361Z,47.48
2018-11-29T07:21:06.002Z,47.70
2018-11-29T07:26:09.158Z,47.65
2018-11-29T07:31:12.371Z,47.56
2018-11-29T07:36:15.573Z,47.67
2018-11-29T07:41:18.781Z,47.53
2018-11-29T07:46:21.937Z,47.78
2018-11-29T07:51:25.092Z,38.68
2018-11-29T07:56:28.257Z,29.91
2018-11-29T08:01:31.430Z,27.30
2018-11-29T08:06:34.821Z,28.43
2018-11-29T08:11:38.042Z,31.82
2018-11-29T08:16:41.234Z,35.26
2018-11-29T08:21:44.447Z,36.60
2018-11-29T08:26:47.657Z,37.39
2018-11-29T08:31:50.854Z,38.30
2018-11-29T08:36:54.064Z,38.54
2018-11-29T08:41:57.278Z,39.02
2018-11-29T08:47:00.489Z,39.27
2018-11-29T08:52:03.646Z,39.87
2018-11-29T08:57:06.810Z,39.73
2018-11-29T09:02:10.011Z,39.95
2018-11-29T09:07:13.221Z,40.28
2018-11-29T09:12:16.427Z,40.57
2018-11-29T09:17:19.629Z,41.13
2018-11-29T09:22:22.838Z,41.48
2018-11-29T09:27:26.047Z,41.36
2018-11-29T09:32:29.264Z,41.81
2018-11-29T09:37:32.429Z,41.87
2018-11-29T09:42:35.586Z,42.24
2018-11-29T09:47:38.886Z,42.24
2018-11-29T09:52:42.225Z,42.58
2018-11-29T09:57:46.119Z,42.56
2018-11-29T10:03:01.778Z,42.48
2018-11-29T10:08:11.565Z,42.77
2018-11-29T10:13:09.070Z,43.52
2018-11-29T10:18:12.434Z,43.43
2018-11-29T10:23:15.600Z,43.82
2018-11-29T10:28:18.790Z,44.05
2018-11-29T10:33:21.999Z,44.73
2018-11-29T10:38:25.214Z,44.84
2018-11-29T10:43:28.425Z,45.04
2018-11-29T10:48:31.626Z,44.79
2018-11-29T10:53:37.745Z,45.36
2018-11-29T10:58:38.138Z,45.35
2018-11-29T11:03:41.350Z,45.61
2018-11-29T11:08:44.567Z,46.29
2018-11-29T11:13:47.761Z,47.04
2018-11-29T11:18:50.980Z,47.52
2018-11-29T11:23:59.345Z,47.84
2018-11-29T11:28:57.390Z,47.87
2018-11-29T11:34:00.542Z,47.79
2018-11-29T11:39:06.670Z,48.25
2018-11-29T11:44:09.882Z,47.75
2018-11-29T11:49:13.098Z,48.02
2018-11-29T11:54:16.307Z,47.98
2018-11-29T11:59:19.513Z,48.27
2018-11-29T12:04:22.725Z,48.03
2018-11-29T12:09:25.925Z,48.12
2018-11-29T12:14:29.134Z,47.93
2018-11-29T12:19:32.348Z,48.14
2018-11-29T12:24:35.559Z,47.99
2018-11-29T12:29:38.718Z,47.84
2018-11-29T12:34:41.874Z,48.19
2018-11-29T12:39:45.082Z,48.05
2018-11-29T12:44:48.291Z,48.06
2018-11-29T12:49:51.498Z,48.07
2018-11-29T12:54:54.708Z,48.16
2018-11-29T12:59:57.912Z,48.21
2018-11-29T13:05:01.137Z,48.17
2018-11-29T13:10:04.566Z,47.94
2018-11-29T13:15:11.570Z,47.46
2018-11-29T13:20:16.590Z,48.29
2018-11-29T13:25:20.626Z,48.00
2018-11-29T13:30:24.068Z,48.58
2018-11-29T13:35:31.129Z,48.55
2018-11-29T13:40:34.339Z,48.42
2018-11-29T13:45:37.540Z,48.38
2018-11-29T13:50:40.790Z,47.56
2018-11-29T13:55:43.967Z,47.59
2018-11-29T14:00:47.166Z,48.23
2018-11-29T14:05:50.374Z,47.99
2018-11-29T14:10:53.598Z,47.82
2018-11-29T14:15:56.825Z,47.72
2018-11-29T14:21:00.005Z,47.27
2018-11-29T14:26:03.210Z,47.41
2018-11-29T14:31:06.425Z,47.07
2018-11-29T14:36:09.627Z,47.30
2018-11-29T14:41:12.842Z,47.57
2018-11-29T14:46:17.246Z,47.36
2018-11-29T14:51:19.261Z,47.80
2018-11-29T14:56:22.449Z,48.12
2018-11-29T15:01:25.675Z,48.17
2018-11-29T15:06:28.905Z,48.33
2018-11-29T15:11:32.098Z,49.24
2018-11-29T15:16:35.262Z,48.81
2018-11-29T15:21:38.446Z,49.32
2018-11-29T15:26:41.707Z,49.28
2018-11-29T15:31:44.930Z,49.21
2018-11-29T15:36:48.086Z,49.62
2018-11-29T15:41:51.246Z,49.22
2018-11-29T15:46:54.461Z,49.84
2018-11-29T15:51:57.655Z,49.63
2018-11-29T15:57:00.854Z,48.81
2018-11-29T16:02:04.081Z,49.14
2018-11-29T16:07:07.285Z,48.75
2018-11-29T16:12:10.486Z,48.57
2018-11-29T16:17:13.702Z,48.52
2018-11-29T16:22:16.903Z,48.73
2018-11-29T16:27:20.106Z,48.27
2018-11-29T16:32:23.319Z,48.49
2018-11-29T16:37:26.531Z,48.21
2018-11-29T16:42:29.734Z,48.42
2018-11-29T16:47:32.946Z,48.79
2018-11-29T16:52:36.165Z,48.92
2018-11-29T16:57:40.658Z,49.28
2018-11-29T17:02:43.899Z,49.87
2018-11-29T17:07:47.326Z,49.80
2018-11-29T17:12:55.249Z,49.63
2018-11-29T17:17:58.437Z,48.71
2018-11-29T17:23:01.645Z,48.84
2018-11-29T17:28:04.909Z,48.56
2018-11-29T17:33:09.094Z,48.05
2018-11-29T17:38:12.304Z,48.05
2018-11-29T17:43:15.510Z,48.02
2018-11-29T17:48:18.718Z,47.28
2018-11-29T17:53:21.925Z,47.09
2018-11-29T17:58:25.086Z,47.01
2018-11-29T18:03:28.246Z,47.10
2018-11-29T18:08:31.466Z,46.51
2018-11-29T18:13:36.095Z,46.10
2018-11-29T18:18:39.302Z,45.85
2018-11-29T18:23:46.871Z,45.88
2018-11-29T18:28:45.721Z,46.47
2018-11-29T18:33:48.878Z,46.20
2018-11-29T18:38:52.046Z,45.91
2018-11-29T18:43:55.221Z,46.16
2018-11-29T18:48:58.462Z,46.33
2018-11-29T18:54:03.542Z,46.00
2018-11-29T18:59:06.726Z,46.28
2018-11-29T19:04:09.926Z,46.41
2018-11-29T19:09:13.550Z,46.11
2018-11-29T19:14:16.758Z,46.40
2018-11-29T19:19:21.576Z,46.41
2018-11-29T19:24:24.745Z,46.26
2018-11-29T19:29:27.911Z,46.47
2018-11-29T19:34:31.123Z,46.55
2018-11-29T19:39:34.277Z,46.88
2018-11-29T19:44:38.272Z,46.86
2018-11-29T19:49:41.458Z,46.78
2018-11-29T19:54:44.786Z,47.25
2018-11-29T19:59:47.978Z,46.83
2018-11-29T20:04:51.195Z,47.10
2018-11-29T20:09:54.394Z,46.93
2018-11-29T20:14:57.610Z,47.38
2018-11-29T20:20:09.725Z,47.27
2018-11-29T20:25:14.117Z,47.02
2018-11-29T20:30:20.291Z,47.20
2018-11-29T20:35:23.578Z,47.07
2018-11-29T20:40:28.629Z,47.46
2018-11-29T20:45:34.379Z,47.36
2018-11-29T20:50:37.590Z,47.14
2018-11-29T20:55:40.811Z,47.07
2018-11-29T21:00:43.982Z,47.10
2018-11-29T21:05:47.218Z,47.61
2018-11-29T21:10:50.430Z,47.46
2018-11-29T21:15:53.683Z,47.18
2018-11-29T21:20:56.966Z,47.04
2018-11-29T21:26:00.166Z,47.42
2018-11-29T21:31:03.369Z,47.48
2018-11-29T21:36:06.577Z,47.57
2018-11-29T21:41:09.805Z,47.62
2018-11-29T21:46:12.979Z,47.58
2018-11-29T21:51:17.866Z,47.68
2018-11-29T21:56:21.150Z,47.41
2018-11-29T22:01:24.345Z,47.67
2018-11-29T22:06:29.446Z,47.60
2018-11-29T22:11:32.610Z,47.99
2018-11-29T22:16:35.817Z,48.15
2018-11-29T22:21:40.393Z,47.92
2018-11-29T22:26:43.553Z,48.13
2018-11-29T22:31:46.763Z,48.03
2018-11-29T22:36:49.977Z,48.18
2018-11-29T22:41:53.169Z,47.99
2018-11-29T22:46:56.393Z,48.16
2018-11-29T22:51:59.617Z,47.86
2018-11-29T22:57:02.801Z,48.19
2018-11-29T23:02:06.433Z,48.34
2018-11-29T23:07:09.636Z,47.91
2018-11-29T23:12:12.855Z,48.22
2018-11-29T23:17:16.048Z,48.26
2018-11-29T23:22:19.263Z,48.13
2018-11-29T23:27:22.483Z,47.89
2018-11-29T23:32:25.698Z,48.46
2018-11-29T23:37:28.858Z,48.15
2018-11-29T23:42:32.102Z,48.37
2018-11-29T23:47:35.529Z,48.32
2018-11-29T23:52:38.686Z,47.98
2018-11-29T23:57:41.926Z,48.38
